Aérodrome :
LOGIN :

S'inscrire | Disclaimer

   EN    FR    IT 

 










Légende :    VFR   VFR Marginal   IFR   IFR Intensif   IFR Très Intensif
Visi : 
Plafond : 
>= 8 km
>= 3000ft
5 à 8 km
1000 à 3000 ft
1500m à 5 km
500 à 1000 ft
800 à 1500m
200 à 500 ft
< 800m
< 200 ft
Symboles :   Orages  Brouillard  Fortes neiges  Fortes précipitations  Vent > 20 kt
SIGMETs :   Divers  Orages  Givrage  Turbulence  Onde Orograph.  Cendres Volcan.






- Altitude de l'aérodrome : 33 ft
- Code IATA : MHZ


EGUN - RAF Mildenhall

DERNIER METAR :
  • 152138Z AUTO 19013KT 9999 -RA SCT036 SCT046 BKN055 BKN070 07/07 A2946 RMK AO2 RAB08E32DZB32E33RAB33 SLP979 $

METARs EXPIRÉS :
  • 152118Z AUTO 22016KT 9999 -RA BKN040 BKN050 OVC090 07/07 A2947 RMK AO2 RAB08 SLP983 $
  • 152108Z AUTO 20013G17KT 9999 -RA FEW030 SCT039 BKN050 BKN090 07/06 A2947 RMK AO2 RAB08 SLP983 $
  • 152101Z AUTO 20008KT 9999 FEW030 FEW039 SCT055 BKN095 07/06 A2947 RMK AO2 SLP983 $
  • 152051Z AUTO 20006KT 9999 FEW030 SCT040 BKN049 BKN110 07/06 A2947 RMK AO2 SLP983 $
  • 151956Z 18008KT 9999 CLR 06/04 A2946 RMK AO2A SLP980 T00580044 $
  • 151856Z 19011KT 9999 CLR 07/04 A2945 RMK AO2A SLP976 T00660037 $

TAF TAF EGUN
Valide du 15 à 20h jusqu'au 17 à 02h UTC


152000Z 1520/1702 19010G20KT 9999 SCT040 QNH2946INS
BECMG 1522/1523 20015G20KT 9000 -SHRA BKN020 QNH2945INS
BECMG 1604/1605 20010G20KT 9999 NSW SCT015 QNH2948INS
BECMG 1609/1610 20012KT 9999 FEW030 QNH2951INS
BECMG 1621/1622 20009KT 3200 BR BKN015 QNH2951INS TX09/1613Z TN05/1620Z



MET'MAP, la Météo Aéronautique d'un coup d'oeil ! - Copyright ORBIFLY Décembre 2007 - Disclaimer

ORBIFLY MET'MAP TEAM :

Programmation & Développement : Alexandra Zaïnal
Sur une idée originale de : Baudouin d'Aumeries
Assistance à la programmation : Marc-Olivier Méhu
Soutien technique & logistique : Manuel Goepfert

Contact : metmap@orbifly.com




SOURCES & CREDITS :

   NOAA